createdAt,value
2016-05-24T00:00:22.513Z,16.02
2016-05-24T00:01:23.265Z,16.07
2016-05-24T00:02:22.910Z,16.04
2016-05-24T00:03:22.506Z,16.02
2016-05-24T00:04:22.493Z,16.04
2016-05-24T00:05:36.808Z,15.97
2016-05-24T00:06:22.779Z,16
2016-05-24T00:07:22.563Z,15.96
2016-05-24T00:08:22.753Z,15.94
2016-05-24T00:09:22.584Z,16.02
2016-05-24T00:10:22.603Z,16.04
2016-05-24T00:11:22.605Z,15.96
2016-05-24T00:12:22.858Z,15.93
2016-05-24T00:13:22.814Z,16
2016-05-24T00:15:22.710Z,15.96
2016-05-24T00:16:36.697Z,16
2016-05-24T00:17:22.716Z,15.93
2016-05-24T00:18:22.639Z,16.01
2016-05-24T00:19:23.111Z,16.04
2016-05-24T00:20:22.661Z,16.02
2016-05-24T00:23:22.685Z,16.02
2016-05-24T00:24:22.734Z,16.04
2016-05-24T00:25:22.893Z,16.02
2016-05-24T00:26:22.910Z,16.02
2016-05-24T00:27:22.711Z,16.05
2016-05-24T00:28:22.713Z,16.02
2016-05-24T00:29:22.951Z,16.04
2016-05-24T00:30:22.953Z,16.01
2016-05-24T00:31:22.754Z,16.08
2016-05-24T00:32:22.959Z,16
2016-05-24T00:33:22.759Z,16.08
2016-05-24T00:34:22.776Z,16.04
2016-05-24T00:35:22.764Z,16.04
2016-05-24T00:36:22.969Z,15.97
2016-05-24T00:37:23.003Z,16.04
2016-05-24T00:38:23.193Z,16.02
2016-05-24T00:39:23.009Z,16.01
2016-05-24T00:40:23.043Z,16.01
2016-05-24T00:41:23.233Z,16.02
2016-05-24T00:42:23.064Z,16.07
2016-05-24T00:43:23.066Z,16.05
2016-05-24T00:44:23.928Z,15.97
2016-05-24T00:45:36.931Z,16.05
2016-05-24T00:46:23.340Z,16.01
2016-05-24T00:47:22.936Z,16.04
2016-05-24T00:48:22.955Z,16.05
2016-05-24T00:49:22.927Z,16.04
2016-05-24T00:50:22.398Z,16.05
2016-05-24T00:51:22.916Z,16.05
2016-05-24T00:52:23.153Z,16.04
2016-05-24T00:53:22.968Z,16.01
2016-05-24T00:54:22.986Z,16.04
2016-05-24T00:55:22.974Z,16.05
2016-05-24T00:56:22.992Z,15.96
2016-05-24T00:57:22.994Z,16.01
2016-05-24T00:58:22.982Z,16.02
2016-05-24T00:59:22.999Z,16.02
2016-05-24T01:00:23.013Z,16.01
2016-05-24T01:01:23.248Z,16.09
2016-05-24T01:02:22.935Z,16.04
2016-05-24T01:03:22.967Z,16.05
2016-05-24T01:04:23.153Z,16.04
2016-05-24T01:06:23.206Z,15.97
2016-05-24T01:07:23.452Z,16.02
2016-05-24T01:08:23.232Z,16.08
2016-05-24T01:09:23.510Z,16.09
2016-05-24T01:10:23.739Z,16.07
2016-05-24T01:11:23.511Z,16.07
2016-05-24T01:12:23.549Z,16.07
2016-05-24T01:13:23.321Z,16.11
2016-05-24T01:14:23.562Z,16.02
2016-05-24T01:15:23.318Z,16.07
2016-05-24T01:16:23.352Z,16.17
2016-05-24T01:18:23.579Z,16.17
2016-05-24T01:19:23.394Z,16.14
2016-05-24T01:20:23.367Z,16.17
2016-05-24T01:21:37.465Z,16.15
2016-05-24T01:22:23.420Z,16.11
2016-05-24T01:23:23.846Z,16.14
2016-05-24T01:24:23.598Z,16.11
2016-05-24T01:25:23.493Z,16.09
2016-05-24T01:26:23.651Z,16.14
2016-05-24T01:27:23.483Z,16.2
2016-05-24T01:28:23.657Z,16.12
2016-05-24T01:29:23.942Z,16.12
2016-05-24T01:30:23.897Z,16.11
2016-05-24T01:31:23.479Z,16.21
2016-05-24T01:32:23.701Z,16.2
2016-05-24T01:33:23.922Z,16.2
2016-05-24T01:34:23.596Z,16.21
2016-05-24T01:35:23.724Z,16.21
2016-05-24T01:36:23.960Z,16.21
2016-05-24T01:37:23.402Z,16.15
2016-05-24T01:38:23.576Z,16.17
2016-05-24T01:39:23.782Z,16.14
2016-05-24T01:41:23.302Z,16.15
2016-05-24T01:42:23.790Z,16.09
2016-05-24T01:44:23.374Z,16.11
2016-05-24T01:45:23.657Z,16.14
2016-05-24T01:46:23.613Z,16.23
2016-05-24T01:47:23.334Z,16.15
2016-05-24T01:48:23.602Z,16.12
2016-05-24T01:49:37.918Z,16.21
2016-05-24T01:50:23.624Z,16.21
2016-05-24T01:51:23.860Z,16.12
2016-05-24T01:52:23.520Z,16.14
2016-05-24T01:53:23.506Z,16.21
2016-05-24T01:54:23.743Z,16.15
2016-05-24T01:56:23.749Z,16.17
2016-05-24T01:57:23.720Z,16.2
2016-05-24T01:58:23.754Z,16.12
2016-05-24T01:59:23.664Z,16.27
2016-05-24T02:00:23.729Z,16.27
2016-05-24T02:01:23.966Z,16.27
2016-05-24T02:02:23.765Z,16.17
2016-05-24T02:03:23.596Z,16.14
2016-05-24T02:04:23.989Z,16.23
2016-05-24T02:05:23.772Z,16.17
2016-05-24T02:06:23.620Z,16.2
2016-05-24T02:07:23.795Z,16.3
2016-05-24T02:08:23.813Z,16.2
2016-05-24T02:09:23.533Z,16.15
2016-05-24T02:10:24.224Z,16.14
2016-05-24T02:11:23.805Z,16.2
2016-05-24T02:12:23.558Z,16.28
2016-05-24T02:13:24.452Z,16.21
2016-05-24T02:14:24.235Z,16.2
2016-05-24T02:15:38.347Z,16.2
2016-05-24T02:16:24.115Z,16.15
2016-05-24T02:17:23.899Z,16.11
2016-05-24T02:19:37.998Z,16.11
2016-05-24T02:20:24.143Z,16.17
2016-05-24T02:21:52.066Z,16.21
2016-05-24T02:22:23.943Z,16.24
2016-05-24T02:23:23.946Z,16.2
2016-05-24T02:24:23.965Z,16.12
2016-05-24T02:25:24.546Z,16.14
2016-05-24T02:26:23.970Z,16.12
2016-05-24T02:27:23.832Z,16.2
2016-05-24T02:28:24.210Z,16.21
2016-05-24T02:29:23.838Z,16.12
2016-05-24T02:30:24.419Z,16.17
2016-05-24T02:31:23.828Z,16.21
2016-05-24T02:32:24.236Z,16.12
2016-05-24T02:33:24.020Z,16.15
2016-05-24T02:34:38.116Z,16.2
2016-05-24T02:35:24.026Z,16.15
2016-05-24T02:36:23.763Z,16.12
2016-05-24T02:37:24.063Z,16.12
2016-05-24T02:38:23.893Z,16.11
2016-05-24T02:39:24.068Z,16.02
2016-05-24T02:40:24.117Z,16.14
2016-05-24T02:41:24.511Z,16.04
2016-05-24T02:42:24.170Z,16.11
2016-05-24T02:43:24.110Z,16.15
2016-05-24T02:44:24.206Z,16.07
2016-05-24T02:45:24.209Z,16.09
2016-05-24T02:46:24.087Z,16.14
2016-05-24T02:47:24.808Z,16.02
2016-05-24T02:48:23.983Z,16.02
2016-05-24T02:49:24.360Z,16.11
2016-05-24T02:50:24.254Z,16.07
2016-05-24T02:51:24.162Z,16.14
2016-05-24T02:52:24.228Z,16.05
2016-05-24T02:53:24.996Z,16.07
2016-05-24T02:54:24.390Z,16.14
2016-05-24T02:55:24.595Z,16.05
2016-05-24T02:56:24.410Z,16.08
2016-05-24T02:57:23.757Z,16.08
2016-05-24T02:58:24.260Z,16.12
2016-05-24T02:59:24.340Z,16.11
2016-05-24T03:01:24.142Z,16.11
2016-05-24T03:02:24.301Z,16.12
2016-05-24T03:03:25.070Z,16.15
2016-05-24T03:04:24.354Z,16.14
2016-05-24T03:05:24.513Z,16.14
2016-05-24T03:06:24.219Z,16.09
2016-05-24T03:07:24.315Z,16.04
2016-05-24T03:08:24.192Z,16.14
2016-05-24T03:09:24.211Z,16.07
2016-05-24T03:11:24.544Z,16.07
2016-05-24T03:12:24.532Z,16.09
2016-05-24T03:13:24.190Z,16.08
2016-05-24T03:14:38.458Z,16.17
2016-05-24T03:15:24.227Z,16.21
2016-05-24T03:16:24.839Z,16.05
2016-05-24T03:18:24.376Z,16.17
2016-05-24T03:19:24.831Z,16.12
2016-05-24T03:20:24.459Z,16.12
2016-05-24T03:21:24.493Z,16.21
2016-05-24T03:22:38.512Z,16.21
2016-05-24T03:23:24.687Z,16.15
2016-05-24T03:24:38.751Z,16.2
2016-05-24T03:25:24.520Z,16.21
2016-05-24T03:26:24.476Z,16.15
2016-05-24T03:27:24.759Z,16.23
2016-05-24T03:28:24.934Z,16.24
2016-05-24T03:29:24.796Z,16.12
2016-05-24T03:30:24.548Z,16.25
2016-05-24T03:31:24.754Z,16.3
2016-05-24T03:32:24.945Z,16.27
2016-05-24T03:33:24.947Z,16.24
2016-05-24T03:34:24.528Z,16.17
2016-05-24T03:35:24.765Z,16.25
2016-05-24T03:36:24.564Z,16.23
2016-05-24T03:38:24.773Z,16.31
2016-05-24T03:39:24.839Z,16.28
2016-05-24T03:40:38.669Z,16.35
2016-05-24T03:41:24.656Z,16.25
2016-05-24T03:42:24.612Z,16.28
2016-05-24T03:43:24.866Z,16.3
2016-05-24T03:44:24.868Z,16.3
2016-05-24T03:45:24.527Z,16.35
2016-05-24T03:46:24.654Z,16.31
2016-05-24T03:47:24.688Z,16.41
2016-05-24T03:48:24.659Z,16.35
2016-05-24T03:49:24.897Z,16.34
2016-05-24T03:50:24.680Z,16.35
2016-05-24T03:51:24.918Z,16.41
2016-05-24T03:52:24.717Z,16.35
2016-05-24T03:53:24.939Z,16.39
2016-05-24T03:54:24.738Z,16.41
2016-05-24T03:55:24.726Z,16.39
2016-05-24T03:56:24.743Z,16.34
2016-05-24T03:57:24.762Z,16.34
2016-05-24T03:58:24.765Z,16.34
2016-05-24T03:59:24.751Z,16.41
2016-05-24T04:00:25.442Z,16.39
2016-05-24T04:01:24.789Z,16.43
2016-05-24T04:02:24.791Z,16.48
2016-05-24T04:03:24.794Z,16.48
2016-05-24T04:04:24.797Z,16.42
2016-05-24T04:05:24.800Z,16.48
2016-05-24T04:06:24.817Z,16.41
2016-05-24T04:07:24.367Z,16.46
2016-05-24T04:08:24.822Z,16.49
2016-05-24T04:09:24.872Z,16.46
2016-05-24T04:10:25.063Z,16.52
2016-05-24T04:11:24.659Z,16.49
2016-05-24T04:12:25.505Z,16.52
2016-05-24T04:13:24.821Z,16.56
2016-05-24T04:14:24.932Z,16.52
2016-05-24T04:15:25.388Z,16.53
2016-05-24T04:16:25.236Z,16.52
2016-05-24T04:17:39.003Z,16.5
2016-05-24T04:18:24.944Z,16.58
2016-05-24T04:19:24.962Z,16.49
2016-05-24T04:20:24.823Z,16.53
2016-05-24T04:21:24.983Z,16.56
2016-05-24T04:23:25.394Z,16.58
2016-05-24T04:24:25.022Z,16.57
2016-05-24T04:25:25.212Z,16.61
2016-05-24T04:26:25.199Z,16.6
2016-05-24T04:29:25.035Z,16.57
2016-05-24T04:30:25.382Z,16.61
2016-05-24T04:31:25.056Z,16.6
2016-05-24T04:32:24.762Z,16.6
2016-05-24T04:33:25.078Z,16.63
2016-05-24T04:34:25.081Z,16.63
2016-05-24T04:35:25.286Z,16.71
2016-05-24T04:36:25.101Z,16.73
2016-05-24T04:37:25.510Z,16.63
2016-05-24T04:38:25.106Z,16.64
2016-05-24T04:39:25.125Z,16.67
2016-05-24T04:40:25.128Z,16.71
2016-05-24T04:41:25.349Z,16.68
2016-05-24T04:42:25.336Z,16.68
2016-05-24T04:43:25.151Z,16.78
2016-05-24T04:44:25.405Z,16.75
2016-05-24T04:45:25.485Z,16.85
2016-05-24T04:46:39.285Z,16.89
2016-05-24T04:47:39.271Z,16.89
2016-05-24T04:48:25.071Z,16.88
2016-05-24T04:49:39.713Z,16.98
2016-05-24T04:50:39.342Z,16.96
2016-05-24T04:51:25.252Z,16.91
2016-05-24T04:52:25.269Z,16.96
2016-05-24T04:54:25.118Z,17.07
2016-05-24T04:55:25.480Z,17.12
2016-05-24T04:56:25.296Z,17.11
2016-05-24T04:57:25.315Z,17.12
2016-05-24T04:58:25.567Z,17.15
2016-05-24T04:59:24.834Z,17.14
2016-05-24T05:00:25.604Z,17.11
2016-05-24T05:01:25.575Z,17.14
2016-05-24T05:02:25.374Z,17.22
2016-05-24T05:04:25.786Z,17.25
2016-05-24T05:05:25.382Z,17.25
2016-05-24T05:06:25.431Z,17.3
2016-05-24T05:07:25.622Z,17.3
2016-05-24T05:08:25.406Z,17.36
2016-05-24T05:09:25.409Z,17.37
2016-05-24T05:10:25.442Z,17.37
2016-05-24T05:11:25.680Z,17.38
2016-05-24T05:12:25.292Z,17.41
2016-05-24T05:13:25.483Z,17.48
2016-05-24T05:14:25.672Z,17.46
2016-05-24T05:15:26.394Z,17.49
2016-05-24T05:16:25.505Z,17.56
2016-05-24T05:17:25.352Z,17.58
2016-05-24T05:18:25.511Z,17.63
2016-05-24T05:19:25.530Z,17.62
2016-05-24T05:20:25.532Z,17.68
2016-05-24T05:21:25.550Z,17.68
2016-05-24T05:22:25.553Z,17.75
2016-05-24T05:23:25.572Z,17.71
2016-05-24T05:24:25.792Z,17.81
2016-05-24T05:25:25.765Z,17.79
2016-05-24T05:26:26.252Z,17.92
2016-05-24T05:27:25.395Z,17.97
2016-05-24T05:28:25.662Z,17.96
2016-05-24T05:29:39.900Z,18.17
2016-05-24T05:30:39.746Z,18.18
2016-05-24T05:31:25.671Z,18.18
2016-05-24T05:32:39.595Z,18.18
2016-05-24T05:33:25.880Z,18.21
2016-05-24T05:34:25.695Z,18.35
2016-05-24T05:35:25.541Z,18.41
2016-05-24T05:36:25.920Z,18.5
2016-05-24T05:37:25.703Z,18.54
2016-05-24T05:38:25.939Z,18.62
2016-05-24T05:39:25.755Z,18.75
2016-05-24T05:40:25.773Z,18.73
2016-05-24T05:41:25.745Z,18.8
2016-05-24T05:43:25.797Z,18.88
2016-05-24T05:44:26.003Z,18.99
2016-05-24T05:46:40.071Z,18.94
2016-05-24T05:47:25.838Z,18.91
2016-05-24T05:49:26.173Z,18.94
2016-05-24T05:50:25.863Z,18.92
2016-05-24T05:51:25.710Z,18.87
2016-05-24T05:52:25.883Z,18.91
2016-05-24T05:53:25.886Z,18.92
2016-05-24T05:54:25.982Z,18.92
2016-05-24T05:55:26.610Z,18.92
2016-05-24T05:56:26.176Z,18.94
2016-05-24T05:57:25.991Z,19.02
2016-05-24T05:58:25.368Z,18.99
2016-05-24T05:59:25.824Z,18.9
2016-05-24T06:00:25.827Z,19
2016-05-24T06:01:26.017Z,18.92
2016-05-24T06:02:26.020Z,18.94
2016-05-24T06:03:25.850Z,18.99
2016-05-24T06:04:26.229Z,18.99
2016-05-24T06:05:26.434Z,18.98
2016-05-24T06:06:25.812Z,19.14
2016-05-24T06:07:26.080Z,19.13
2016-05-24T07:13:20.662Z,20.17
2016-05-24T07:14:20.696Z,20.16
2016-05-24T07:16:20.903Z,20.16
2016-05-24T07:17:20.719Z,20.18
2016-05-24T07:18:20.737Z,20.18
2016-05-24T07:19:35.289Z,20.24
2016-05-24T07:20:21.039Z,20.26
2016-05-24T07:21:20.886Z,20.26
2016-05-24T07:22:20.998Z,20.21
2016-05-24T07:24:21.238Z,20.26
2016-05-24T07:25:21.053Z,20.26
2016-05-24T07:27:20.980Z,20.21
2016-05-24T07:28:21.264Z,20.32
2016-05-24T07:29:21.267Z,20.33
2016-05-24T07:30:20.941Z,20.26
2016-05-24T07:31:21.038Z,20.28
2016-05-24T07:32:21.040Z,20.32
2016-05-24T07:33:21.074Z,20.31
2016-05-24T07:34:21.734Z,20.26
2016-05-24T07:35:21.049Z,20.21
2016-05-24T07:36:21.207Z,20.16
2016-05-24T07:37:35.182Z,20.16
2016-05-24T07:38:21.323Z,20.14
2016-05-24T07:39:21.216Z,20.16
2016-05-24T07:40:20.828Z,20.2
2016-05-24T07:41:21.268Z,20.16
2016-05-24T07:42:21.067Z,20.13
2016-05-24T07:43:21.695Z,20.17
2016-05-24T07:44:21.339Z,20.21
2016-05-24T07:45:21.700Z,20.21
2016-05-24T07:46:21.188Z,20.16
2016-05-24T07:47:21.253Z,20.21
2016-05-24T07:48:21.317Z,20.24
2016-05-24T07:49:21.712Z,20.26
2016-05-24T07:50:24.342Z,20.24
2016-05-24T07:51:21.670Z,20.35
2016-05-24T07:53:21.285Z,20.36
2016-05-24T07:54:21.366Z,20.41
2016-05-24T07:55:21.805Z,20.54
2016-05-24T07:56:21.355Z,20.58
2016-05-24T07:57:21.171Z,20.51
2016-05-24T07:58:21.408Z,20.64
2016-05-24T07:59:21.676Z,20.59
2016-05-24T08:00:22.757Z,20.62
2016-05-24T08:01:21.540Z,20.66
2016-05-24T08:02:21.496Z,20.67
2016-05-24T08:03:49.627Z,20.69
2016-05-24T08:04:21.424Z,20.74
2016-05-24T08:05:23.708Z,20.7
2016-05-24T08:06:21.304Z,20.73
2016-05-24T08:07:21.463Z,20.76
2016-05-24T08:08:21.153Z,20.76
2016-05-24T08:10:23.784Z,20.77
2016-05-24T08:11:21.834Z,20.79
2016-05-24T08:12:21.851Z,20.88
2016-05-24T08:13:20.885Z,20.94
2016-05-24T08:14:35.687Z,20.95
2016-05-24T08:15:23.187Z,20.95
2016-05-24T08:16:21.315Z,20.95
2016-05-24T08:17:21.287Z,21.01
2016-05-24T08:18:21.806Z,20.94
2016-05-24T08:19:21.917Z,20.91
2016-05-24T08:20:23.669Z,20.95
2016-05-24T08:21:21.813Z,20.95
2016-05-24T08:22:22.114Z,21.04
2016-05-24T08:23:21.678Z,21.03
2016-05-24T08:24:21.947Z,21.06
2016-05-24T08:25:22.106Z,20.97
2016-05-24T08:26:36.094Z,21.06
2016-05-24T08:27:22.235Z,21.04
2016-05-24T08:28:21.910Z,21.03
2016-05-24T08:29:21.741Z,21.12
2016-05-24T08:30:22.416Z,21.16
2016-05-24T08:31:21.808Z,21.19
2016-05-24T08:32:22.155Z,21.25
2016-05-24T08:33:22.158Z,21.25
2016-05-24T08:34:22.082Z,21.29
2016-05-24T08:35:22.913Z,21.34
2016-05-24T08:36:22.072Z,21.43
2016-05-24T08:37:36.093Z,21.32
2016-05-24T08:38:21.765Z,21.37
2016-05-24T08:39:22.049Z,21.44
2016-05-24T08:40:22.286Z,21.49
2016-05-24T08:41:22.054Z,21.46
2016-05-24T08:42:21.635Z,21.46
2016-05-24T08:43:36.063Z,21.49
2016-05-24T08:44:22.141Z,21.46
2016-05-24T08:45:24.190Z,21.43
2016-05-24T08:46:22.021Z,21.46
2016-05-24T08:47:21.992Z,21.4
2016-05-24T08:48:22.651Z,21.38
2016-05-24T08:49:22.091Z,21.38
2016-05-24T08:50:23.484Z,21.27
2016-05-24T08:51:22.582Z,21.31
2016-05-24T08:52:22.100Z,21.34
2016-05-24T08:53:22.289Z,21.28
2016-05-24T08:54:22.199Z,21.37
2016-05-24T08:55:24.811Z,21.37
2016-05-24T08:56:22.391Z,21.44
2016-05-24T08:57:22.317Z,21.47
2016-05-24T08:58:22.210Z,21.5
2016-05-24T08:59:22.244Z,21.54
2016-05-24T09:00:25.465Z,21.61
2016-05-24T09:01:36.314Z,21.56
2016-05-24T09:02:22.533Z,21.69
2016-05-24T09:03:22.066Z,21.75
2016-05-24T09:04:22.289Z,21.79
2016-05-24T09:05:23.697Z,21.82
2016-05-24T09:06:22.106Z,21.92
2016-05-24T09:07:22.218Z,21.92
2016-05-24T09:08:22.174Z,21.98
2016-05-24T09:09:35.960Z,22.03
2016-05-24T09:10:23.960Z,22.03
2016-05-24T09:11:22.495Z,22.1
2016-05-24T09:12:22.404Z,22.24
2016-05-24T09:13:22.219Z,22.21
2016-05-24T09:14:22.534Z,22.2
2016-05-24T09:15:23.959Z,22.25
2016-05-24T09:19:22.297Z,22.43
2016-05-24T09:20:24.253Z,22.46
2016-05-24T09:21:22.412Z,22.46
2016-05-24T09:22:22.243Z,22.57
2016-05-24T09:23:22.433Z,22.54
2016-05-24T09:24:22.405Z,22.55
2016-05-24T09:25:24.954Z,22.61
2016-05-24T09:26:22.411Z,22.64
2016-05-24T09:27:22.256Z,22.62
2016-05-24T09:28:23.102Z,22.73
2016-05-24T09:29:22.684Z,22.73
2016-05-24T09:30:24.655Z,22.65
2016-05-24T09:31:23.689Z,22.82
2016-05-24T09:32:23.130Z,22.77
2016-05-24T09:33:22.554Z,22.79
2016-05-24T09:34:22.947Z,22.9
2016-05-24T09:35:23.294Z,22.94
2016-05-24T09:36:36.892Z,22.92
2016-05-24T09:37:22.814Z,22.83
2016-05-24T09:38:23.052Z,22.82
2016-05-24T09:39:22.648Z,22.79
2016-05-24T09:40:23.526Z,22.79
2016-05-24T09:41:22.857Z,22.79
2016-05-24T09:42:23.265Z,22.8
2016-05-24T09:43:22.752Z,22.86
2016-05-24T09:45:33.495Z,22.79
2016-05-24T09:46:23.745Z,22.88
2016-05-24T09:47:22.731Z,22.83
2016-05-24T09:48:23.298Z,22.8
2016-05-24T09:49:24.269Z,22.79
2016-05-24T09:50:25.895Z,22.8
2016-05-24T09:51:23.899Z,22.8
2016-05-24T09:52:22.855Z,22.76
2016-05-24T09:53:23.014Z,22.77
2016-05-24T09:54:37.050Z,22.62
2016-05-24T09:55:25.691Z,22.65
2016-05-24T09:56:24.256Z,22.6
2016-05-24T09:57:23.525Z,22.58
2016-05-24T09:58:22.902Z,22.52
2016-05-24T09:59:22.905Z,22.47
2016-05-24T10:00:27.486Z,22.45
2016-05-24T10:01:22.880Z,22.49
2016-05-24T10:02:22.991Z,22.42
2016-05-24T10:03:23.681Z,22.35
2016-05-24T10:05:38.063Z,22.43
2016-05-24T10:06:37.112Z,22.33
2016-05-24T10:07:23.049Z,22.55
2016-05-24T10:08:23.715Z,22.52
2016-05-24T10:09:23.176Z,22.51
2016-05-24T10:10:23.561Z,22.54
2016-05-24T10:11:23.695Z,22.55
2016-05-24T10:12:23.663Z,22.58
2016-05-24T10:13:23.346Z,22.61
2016-05-24T10:14:22.982Z,22.67
2016-05-24T10:15:26.133Z,22.67
2016-05-24T10:16:37.230Z,22.7
2016-05-24T10:17:24.292Z,22.68
2016-05-24T10:18:23.830Z,22.62
2016-05-24T10:19:23.413Z,22.72
2016-05-24T10:20:23.730Z,22.68
2016-05-24T10:21:23.392Z,22.68
2016-05-24T10:22:23.912Z,22.72
2016-05-24T10:23:23.463Z,22.76
2016-05-24T10:24:24.311Z,22.67
2016-05-24T10:25:26.736Z,22.73
2016-05-24T10:26:23.474Z,22.73
2016-05-24T10:27:37.575Z,22.7
2016-05-24T10:28:37.796Z,22.64
2016-05-24T10:29:24.281Z,22.58
2016-05-24T10:30:38.099Z,22.58
2016-05-24T10:31:23.568Z,22.55
2016-05-24T10:32:23.618Z,22.47
2016-05-24T10:33:23.683Z,22.33
2016-05-24T10:34:24.154Z,22.36
2016-05-24T10:35:25.360Z,22.24
2016-05-24T10:36:23.831Z,22.27
2016-05-24T10:37:25.818Z,22.42
2016-05-24T10:38:24.165Z,22.46
2016-05-24T10:39:23.606Z,22.52
2016-05-24T10:40:25.123Z,22.58
2016-05-24T10:41:24.048Z,22.82
2016-05-24T10:42:25.067Z,22.88
2016-05-24T10:43:23.303Z,22.91
2016-05-24T10:44:24.400Z,22.97
2016-05-24T10:45:25.622Z,23.09
2016-05-24T10:46:24.671Z,22.97
2016-05-24T10:47:25.689Z,23.16
2016-05-24T10:48:23.848Z,23.02
2016-05-24T10:49:24.430Z,23.15
2016-05-24T10:50:24.103Z,23.2
2016-05-24T10:51:23.700Z,23.31
2016-05-24T10:52:26.109Z,23.32
2016-05-24T10:53:23.940Z,23.38
2016-05-24T10:54:38.226Z,23.32
2016-05-24T10:55:25.945Z,23.55
2016-05-24T10:56:23.979Z,23.63
2016-05-24T10:57:38.125Z,23.58
2016-05-24T10:58:24.516Z,23.63
2016-05-24T10:59:23.831Z,23.69
2016-05-24T11:00:25.912Z,23.72
2016-05-24T11:01:23.882Z,23.8
2016-05-24T11:02:39.232Z,23.8
2016-05-24T11:03:38.251Z,23.93
2016-05-24T11:04:24.095Z,23.9
2016-05-24T11:05:25.754Z,23.95
2016-05-24T11:06:24.600Z,23.91
2016-05-24T11:07:27.118Z,24.02
2016-05-24T11:08:24.996Z,24.02
2016-05-24T11:09:24.561Z,23.95
2016-05-24T11:10:24.189Z,23.98
2016-05-24T11:11:24.395Z,23.98
2016-05-24T11:13:24.197Z,24
2016-05-24T11:14:24.824Z,23.9
2016-05-24T11:15:24.500Z,23.84
2016-05-24T11:16:39.129Z,24.02
2016-05-24T11:17:24.816Z,24
2016-05-24T11:18:24.820Z,23.83
2016-05-24T11:19:24.806Z,23.93
2016-05-24T11:20:25.481Z,23.83
2016-05-24T11:21:38.877Z,23.83
2016-05-24T11:22:24.580Z,23.76
2016-05-24T11:23:24.849Z,23.8
2016-05-24T11:24:25.070Z,23.75
2016-05-24T11:25:24.776Z,23.69
2016-05-24T11:26:24.450Z,23.65
2016-05-24T11:27:24.469Z,23.57
2016-05-24T11:28:24.455Z,23.57
2016-05-24T11:29:24.474Z,23.58
2016-05-24T11:30:24.930Z,23.5
2016-05-24T11:31:24.496Z,23.38
2016-05-24T11:32:24.545Z,23.39
2016-05-24T11:33:24.610Z,23.27
2016-05-24T11:34:24.394Z,23.17
2016-05-24T11:35:24.757Z,23.07
2016-05-24T11:36:24.618Z,23.05
2016-05-24T11:37:24.792Z,22.97
2016-05-24T11:38:24.639Z,22.91
2016-05-24T11:39:24.532Z,22.9
2016-05-24T11:40:24.863Z,22.64
2016-05-24T11:41:24.553Z,22.64
2016-05-24T11:42:24.509Z,22.6
2016-05-24T11:43:24.825Z,22.49
2016-05-24T11:44:24.670Z,22.42
2016-05-24T11:45:24.955Z,22.4
2016-05-24T11:46:24.957Z,22.4
2016-05-24T11:47:24.960Z,22.31
2016-05-24T11:48:25.291Z,22.3
2016-05-24T11:49:24.747Z,22.25
2016-05-24T11:50:24.890Z,22.35
2016-05-24T11:51:24.784Z,22.37
2016-05-24T11:52:25.066Z,22.28
2016-05-24T11:53:25.367Z,22.3
2016-05-24T11:54:25.011Z,22.28
2016-05-24T11:55:24.732Z,22.27
2016-05-24T11:56:25.281Z,22.21
2016-05-24T11:58:25.208Z,22.27
2016-05-24T11:59:25.196Z,22.39
2016-05-24T12:00:25.760Z,22.24
2016-05-24T12:01:39.266Z,22.33
2016-05-24T12:02:25.235Z,22.4
2016-05-24T12:03:25.159Z,22.37
2016-05-24T12:04:25.412Z,22.46
2016-05-24T12:05:25.071Z,22.42
2016-05-24T12:06:25.418Z,22.33
2016-05-24T12:07:25.514Z,22.37
2016-05-24T12:08:39.238Z,22.37
2016-05-24T12:09:25.082Z,22.36
2016-05-24T12:10:25.194Z,22.25
2016-05-24T12:11:25.884Z,22.25
2016-05-24T12:12:25.090Z,22.25
2016-05-24T12:13:25.092Z,22.21
2016-05-24T12:14:25.111Z,22.3
2016-05-24T12:15:25.723Z,22.2
2016-05-24T12:16:25.038Z,22.27
2016-05-24T12:17:25.025Z,22.25
2016-05-24T12:18:25.465Z,22.28
2016-05-24T12:19:25.047Z,22.27
2016-05-24T12:20:25.095Z,22.25
2016-05-24T12:21:25.660Z,22.25
2016-05-24T12:22:26.289Z,22.33
2016-05-24T12:23:25.588Z,22.39
2016-05-24T12:24:25.481Z,22.37
2016-05-24T12:25:25.468Z,22.47
2016-05-24T12:26:25.300Z,22.47
2016-05-24T12:27:25.318Z,22.46
2016-05-24T12:28:25.163Z,22.57
2016-05-24T12:29:25.369Z,22.57
2016-05-24T12:30:24.966Z,22.64
2016-05-24T12:31:25.391Z,22.61
2016-05-24T12:32:25.972Z,22.62
2016-05-24T12:33:25.427Z,22.75
2016-05-24T12:34:25.243Z,22.8
2016-05-24T12:35:26.090Z,22.82
2016-05-24T12:36:25.280Z,22.85
2016-05-24T12:37:25.985Z,22.92
2016-05-24T12:38:25.488Z,22.94
2016-05-24T12:39:25.709Z,22.79
2016-05-24T12:40:25.681Z,22.83
2016-05-24T12:41:25.512Z,22.65
2016-05-24T12:42:25.904Z,22.73
2016-05-24T12:43:25.532Z,22.68
2016-05-24T12:44:25.550Z,22.54
2016-05-24T12:45:25.959Z,22.54
2016-05-24T12:46:25.963Z,22.43
2016-05-24T12:47:25.340Z,22.43
2016-05-24T12:48:25.655Z,22.37
2016-05-24T12:49:25.470Z,22.3
2016-05-24T12:50:25.708Z,22.21
2016-05-24T12:51:25.945Z,22.18
2016-05-24T12:52:25.745Z,22.03
2016-05-24T12:53:26.372Z,21.99
2016-05-24T12:54:26.000Z,22.05
2016-05-24T12:55:25.800Z,21.91
2016-05-24T12:56:26.567Z,21.94
2016-05-24T12:57:25.805Z,21.83
2016-05-24T12:59:26.169Z,21.75
2016-05-24T13:00:26.032Z,21.68
2016-05-24T13:01:25.830Z,21.68
2016-05-24T13:02:25.912Z,21.67
2016-05-24T13:03:26.102Z,21.71
2016-05-24T13:04:25.713Z,21.65
2016-05-24T13:05:26.107Z,21.65
2016-05-24T13:06:26.110Z,21.65
2016-05-24T13:07:25.504Z,21.64
2016-05-24T13:09:27.352Z,21.69
2016-05-24T13:10:25.792Z,21.67
2016-05-24T13:11:26.530Z,21.68
2016-05-24T13:12:25.954Z,21.64
2016-05-24T13:13:26.379Z,21.77
2016-05-24T13:14:27.726Z,21.67
2016-05-24T13:15:40.090Z,21.68
2016-05-24T13:16:26.231Z,21.74
2016-05-24T13:17:26.217Z,21.68
2016-05-24T13:18:26.251Z,21.61
2016-05-24T13:19:28.520Z,21.64
2016-05-24T13:20:40.478Z,21.53
2016-05-24T13:21:26.197Z,21.47
2016-05-24T13:22:26.122Z,21.28
2016-05-24T13:23:26.093Z,21.35
2016-05-24T13:24:40.192Z,21.28
2016-05-24T13:25:26.145Z,21.1
2016-05-24T13:26:26.226Z,21.16
2016-05-24T13:27:26.011Z,21.04
2016-05-24T13:28:26.233Z,20.98
2016-05-24T13:29:26.438Z,21.01
2016-05-24T13:30:26.128Z,20.85
2016-05-24T13:31:26.036Z,20.79
2016-05-24T13:32:26.461Z,20.8
2016-05-24T13:33:26.261Z,20.82
2016-05-24T13:34:26.716Z,20.73
2016-05-24T13:35:26.266Z,20.67
2016-05-24T13:36:26.347Z,20.58
2016-05-24T13:37:26.287Z,20.51
2016-05-24T13:38:26.509Z,20.57
2016-05-24T13:39:27.699Z,20.54
2016-05-24T13:40:26.810Z,20.52
2016-05-24T13:41:26.329Z,20.41
2016-05-24T13:42:26.348Z,20.35
2016-05-24T13:43:26.397Z,20.36
2016-05-24T13:44:26.446Z,20.29
2016-05-24T13:45:26.558Z,20.38
2016-05-24T13:46:26.514Z,20.32
2016-05-24T13:47:26.424Z,20.23
2016-05-24T13:48:40.506Z,20.2
2016-05-24T13:49:26.428Z,20.2
2016-05-24T13:50:26.431Z,20.17
2016-05-24T13:51:26.465Z,20.23
2016-05-24T13:52:26.811Z,20.05
2016-05-24T13:53:26.502Z,20.1
2016-05-24T13:54:41.008Z,20.06
2016-05-24T13:55:26.555Z,20.02
2016-05-24T13:56:26.541Z,20.03
2016-05-24T13:57:26.544Z,19.95
2016-05-24T13:58:26.405Z,19.95
2016-05-24T13:59:26.611Z,19.96
2016-05-24T14:00:26.974Z,19.96
2016-05-24T14:01:26.789Z,19.84
2016-05-24T14:02:26.433Z,19.81
2016-05-24T14:03:26.810Z,19.91
2016-05-24T14:04:26.640Z,19.86
2016-05-24T14:05:26.628Z,19.86
2016-05-24T14:06:26.663Z,19.8
2016-05-24T14:07:40.761Z,19.71
2016-05-24T14:08:26.683Z,19.8
2016-05-24T14:09:26.685Z,19.76
2016-05-24T14:10:26.688Z,19.71
2016-05-24T14:11:26.535Z,19.65
2016-05-24T14:12:26.693Z,19.63
2016-05-24T14:13:26.712Z,19.63
2016-05-24T14:14:26.745Z,19.63
2016-05-24T14:15:27.889Z,19.63
2016-05-24T14:16:26.751Z,19.65
2016-05-24T14:17:26.989Z,19.63
2016-05-24T14:18:26.992Z,19.63
2016-05-24T14:19:26.822Z,19.65
2016-05-24T14:20:26.856Z,19.62
2016-05-24T14:21:26.828Z,19.69
2016-05-24T14:22:26.862Z,19.65
2016-05-24T14:23:26.848Z,19.71
2016-05-24T14:24:27.461Z,19.65
2016-05-24T14:25:26.854Z,19.65
2016-05-24T14:27:26.875Z,19.66
2016-05-24T14:28:26.878Z,19.69
2016-05-24T14:29:26.927Z,19.69
2016-05-24T14:30:26.758Z,19.68
2016-05-24T14:31:27.338Z,19.65
2016-05-24T14:32:27.216Z,19.68
2016-05-24T14:33:27.407Z,19.66
2016-05-24T14:35:41.274Z,19.76
2016-05-24T14:36:26.727Z,19.74
2016-05-24T14:37:26.995Z,19.66